Rosaria Lauro — IXXO — position and weather

sailwx.info

Track history (hours):
 
Tides and Currents Weather Stations Pressure Air Temp Water Temp Dewpoint Dewpoint Depression Visibility Wind Speed Wind Dir Waves Ship Positions

Rosaria Lauro

Last reported at 2016-Dec-01 13:34 UTC. Time now 2016-Dec-10 18:41 UTC.
Position N 40°48' E 014°13'.
Warning: this ship's position is 9 days out of date.

Length 40 m; draft 1.1 m.

Type: Passenger vessel. MMSI: 247055900.

Date/timePositionNaut miles runAvg speedWind from/ knotsBaromVisibWave heightAir tempDewpointWater temp
2016-Dec-01 13:34N 40°48' E 014°13'1010.2
2016-Dec-01 12:33N 40°46' E 014°00'1312.4
2016-Dec-01 11:33N 40°50' E 014°16'1515.5
2016-Dec-01 10:34N 40°45' E 013°57'0 0.4
2016-Dec-01 09:33N 40°45' E 013°56'8 2.8
2016-Dec-01 06:34N 40°46' E 014°07'1212.0
2016-Dec-01 05:33N 40°44' E 013°52'4 0.4
2016-Nov-30 20:17N 40°45' E 013°56'1418.9
2016-Nov-30 19:34N 40°48' E 014°14'5 4.5
2016-Nov-30 18:34N 40°47' E 014°08'5 5.4
2016-Nov-30 17:34N 40°46' E 014°01'1212.3
2016-Nov-30 16:34N 40°50' E 014°17'1616.3
2016-Nov-30 15:34N 40°45' E 013°56'13 6.4
2016-Nov-30 13:34N 40°48' E 014°13'9 9.1
2016-Nov-30 12:34N 40°44' E 014°02'1211.9
2016-Nov-30 11:32N 40°50' E 014°16'1616.8
2016-Nov-30 10:34N 40°45' E 013°55'1 1.3
2016-Nov-30 09:33N 40°45' E 013°56'6 2.0
2016-Nov-30 06:34N 40°45' E 014°04'10 9.5
2016-Nov-30 05:33N 40°44' E 013°52'4 0.3
2016-Nov-29 17:33N 40°45' E 013°56'0 0.0
2016-Nov-29 16:33N 40°45' E 013°56'0 0.1
2016-Nov-29 15:33N 40°45' E 013°56'0 0.0
2016-Nov-29 14:33N 40°45' E 013°56'0 0.0
2016-Nov-29 13:33N 40°45' E 013°56'3 2.7
2016-Nov-29 12:33N 40°46' E 013°59'1312.6
2016-Nov-29 11:30N 40°50' E 014°16'1616.8
2016-Nov-29 10:33N 40°45' E 013°56'1 0.7
2016-Nov-29 09:33N 40°45' E 013°57'1514.1
2016-Nov-29 08:29N 40°50' E 014°16'1616.7
2016-Nov-29 07:33N 40°45' E 013°56'1612.5
2016-Nov-29 06:17N 40°50' E 014°16'1521.1
2016-Nov-29 05:33N 40°45' E 013°57'0 0.0
2016-Nov-28 20:13N 40°45' E 013°56'1319.7
2016-Nov-28 19:33N 40°48' E 014°13'3 3.5
2016-Nov-28 18:33N 40°47' E 014°09'7 7.0
2016-Nov-28 17:34N 40°46' E 013°60'1313.0
2016-Nov-28 16:34N 40°50' E 014°16'1615.7
2016-Nov-28 15:33N 40°45' E 013°56'13 6.5
2016-Nov-28 13:34N 40°48' E 014°13'10 9.7
2016-Nov-28 12:33N 40°46' E 014°00'1211.7
2016-Nov-28 11:31N 40°50' E 014°16'1516.0
2016-Nov-28 10:34N 40°45' E 013°57'0 0.4
2016-Nov-28 09:33N 40°45' E 013°56'1614.9
2016-Nov-28 08:30N 40°50' E 014°16'1616.7
2016-Nov-28 07:33N 40°45' E 013°56'1512.6
2016-Nov-28 06:20N 40°50' E 014°15'1519.9
2016-Nov-28 05:33N 40°45' E 013°56'  
2016-Nov-25 12:34N 40°46' E 014°02'8 8.2
2016-Nov-25 11:33N 40°44' E 013°52'5 4.6
2016-Nov-25 10:34N 40°45' E 013°57'15 6.9
2016-Nov-25 08:24N 40°50' E 014°16'1618.6
2016-Nov-25 07:33N 40°45' E 013°56'1612.0
2016-Nov-25 06:13N 40°50' E 014°16'1523.3
2016-Nov-25 05:33N 40°45' E 013°57'3 0.2
2016-Nov-24 17:34N 40°46' E 014°00'1312.7
2016-Nov-24 16:33N 40°50' E 014°16'1616.0
2016-Nov-24 15:33N 40°45' E 013°56'13 6.5
2016-Nov-24 13:34N 40°47' E 014°13'10 9.9
2016-Nov-24 12:34N 40°46' E 014°00'1312.5
2016-Nov-24 11:32N 40°50' E 014°16'1616.3
2016-Nov-24 10:34N 40°45' E 013°56'1 0.8
2016-Nov-24 09:34N 40°45' E 013°56'1615.0
2016-Nov-24 08:30N 40°50' E 014°15'1516.2
2016-Nov-24 07:33N 40°45' E 013°56'1612.2
2016-Nov-24 06:15N 40°50' E 014°16'1522.0
2016-Nov-24 05:33N 40°45' E 013°57'4 0.3
2016-Nov-23 17:34N 40°44' E 013°52'1817.6
2016-Nov-23 16:33N 40°48' E 014°14'7 7.2
2016-Nov-23 15:34N 40°46' E 014°05'8 7.9
2016-Nov-23 14:34N 40°45' E 013°55'1612.1
2016-Nov-23 13:12N 40°50' E 014°15'6 9.3
2016-Nov-23 12:33N 40°47' E 014°09'1313.4
2016-Nov-23 11:33N 40°44' E 013°52'4 4.4
2016-Nov-23 10:34N 40°45' E 013°57'15 7.2
2016-Nov-23 08:28N 40°50' E 014°16'1617.4
2016-Nov-23 07:33N 40°45' E 013°56'1612.2
2016-Nov-23 06:16N 40°50' E 014°16'16 1.6
2016-Nov-22 20:13N 40°45' E 013°56'1319.5
2016-Nov-22 19:33N 40°48' E 014°13'16 8.2
2016-Nov-22 17:33N 40°45' E 013°52'1716.9
2016-Nov-22 16:33N 40°48' E 014°14'6 6.5
2016-Nov-22 15:33N 40°46' E 014°05'7 6.9
2016-Nov-22 14:33N 40°45' E 013°56'0 0.1
2016-Nov-22 10:34N 40°45' E 013°57'15 7.3
2016-Nov-22 08:30N 40°50' E 014°15'1516.3
2016-Nov-22 07:33N 40°45' E 013°56'4 0.3
2016-Nov-21 17:33N 40°44' E 013°52'3 1.1
2016-Nov-21 14:33N 40°45' E 013°56'  
Track history (hours):
 
Tides and Currents Weather Stations Pressure Air Temp Water Temp Dewpoint Dewpoint Depression Visibility Wind Speed Wind Dir Waves Ship Positions

Rosaria Lauro

Last reported at 2016-Dec-01 13:34 UTC. Time now 2016-Dec-10 18:41 UTC.
Position N 40°48' E 014°13'.
Warning: this ship's position is 9 days out of date.

Length 40 m; draft 1.1 m.

Type: Passenger vessel. MMSI: 247055900.

Date/timePositionNaut miles runAvg speedWind from/ knotsBaromVisibWave heightAir tempDewpointWater temp
2016-Dec-01 13:34N 40°48' E 014°13'1010.2
2016-Dec-01 12:33N 40°46' E 014°00'1312.4
2016-Dec-01 11:33N 40°50' E 014°16'1515.5
2016-Dec-01 10:34N 40°45' E 013°57'0 0.4
2016-Dec-01 09:33N 40°45' E 013°56'8 2.8
2016-Dec-01 06:34N 40°46' E 014°07'1212.0
2016-Dec-01 05:33N 40°44' E 013°52'4 0.4
2016-Nov-30 20:17N 40°45' E 013°56'1418.9
2016-Nov-30 19:34N 40°48' E 014°14'5 4.5
2016-Nov-30 18:34N 40°47' E 014°08'5 5.4
2016-Nov-30 17:34N 40°46' E 014°01'1212.3
2016-Nov-30 16:34N 40°50' E 014°17'1616.3
2016-Nov-30 15:34N 40°45' E 013°56'13 6.4
2016-Nov-30 13:34N 40°48' E 014°13'9 9.1
2016-Nov-30 12:34N 40°44' E 014°02'1211.9
2016-Nov-30 11:32N 40°50' E 014°16'1616.8
2016-Nov-30 10:34N 40°45' E 013°55'1 1.3
2016-Nov-30 09:33N 40°45' E 013°56'6 2.0
2016-Nov-30 06:34N 40°45' E 014°04'10 9.5
2016-Nov-30 05:33N 40°44' E 013°52'4 0.3
2016-Nov-29 17:33N 40°45' E 013°56'0 0.0
2016-Nov-29 16:33N 40°45' E 013°56'0 0.1
2016-Nov-29 15:33N 40°45' E 013°56'0 0.0
2016-Nov-29 14:33N 40°45' E 013°56'0 0.0
2016-Nov-29 13:33N 40°45' E 013°56'3 2.7
2016-Nov-29 12:33N 40°46' E 013°59'1312.6
2016-Nov-29 11:30N 40°50' E 014°16'1616.8
2016-Nov-29 10:33N 40°45' E 013°56'1 0.7
2016-Nov-29 09:33N 40°45' E 013°57'1514.1
2016-Nov-29 08:29N 40°50' E 014°16'1616.7
2016-Nov-29 07:33N 40°45' E 013°56'1612.5
2016-Nov-29 06:17N 40°50' E 014°16'1521.1
2016-Nov-29 05:33N 40°45' E 013°57'0 0.0
2016-Nov-28 20:13N 40°45' E 013°56'1319.7
2016-Nov-28 19:33N 40°48' E 014°13'3 3.5
2016-Nov-28 18:33N 40°47' E 014°09'7 7.0
2016-Nov-28 17:34N 40°46' E 013°60'1313.0
2016-Nov-28 16:34N 40°50' E 014°16'1615.7
2016-Nov-28 15:33N 40°45' E 013°56'13 6.5
2016-Nov-28 13:34N 40°48' E 014°13'10 9.7
2016-Nov-28 12:33N 40°46' E 014°00'1211.7
2016-Nov-28 11:31N 40°50' E 014°16'1516.0
2016-Nov-28 10:34N 40°45' E 013°57'0 0.4
2016-Nov-28 09:33N 40°45' E 013°56'1614.9
2016-Nov-28 08:30N 40°50' E 014°16'1616.7
2016-Nov-28 07:33N 40°45' E 013°56'1512.6
2016-Nov-28 06:20N 40°50' E 014°15'1519.9
2016-Nov-28 05:33N 40°45' E 013°56'  
2016-Nov-25 12:34N 40°46' E 014°02'8 8.2
2016-Nov-25 11:33N 40°44' E 013°52'5 4.6
2016-Nov-25 10:34N 40°45' E 013°57'15 6.9
2016-Nov-25 08:24N 40°50' E 014°16'1618.6
2016-Nov-25 07:33N 40°45' E 013°56'1612.0
2016-Nov-25 06:13N 40°50' E 014°16'1523.3
2016-Nov-25 05:33N 40°45' E 013°57'3 0.2
2016-Nov-24 17:34N 40°46' E 014°00'1312.7
2016-Nov-24 16:33N 40°50' E 014°16'1616.0
2016-Nov-24 15:33N 40°45' E 013°56'13 6.5
2016-Nov-24 13:34N 40°47' E 014°13'10 9.9
2016-Nov-24 12:34N 40°46' E 014°00'1312.5
2016-Nov-24 11:32N 40°50' E 014°16'1616.3
2016-Nov-24 10:34N 40°45' E 013°56'1 0.8
2016-Nov-24 09:34N 40°45' E 013°56'1615.0
2016-Nov-24 08:30N 40°50' E 014°15'1516.2
2016-Nov-24 07:33N 40°45' E 013°56'1612.2
2016-Nov-24 06:15N 40°50' E 014°16'1522.0
2016-Nov-24 05:33N 40°45' E 013°57'4 0.3
2016-Nov-23 17:34N 40°44' E 013°52'1817.6
2016-Nov-23 16:33N 40°48' E 014°14'7 7.2
2016-Nov-23 15:34N 40°46' E 014°05'8 7.9
2016-Nov-23 14:34N 40°45' E 013°55'1612.1
2016-Nov-23 13:12N 40°50' E 014°15'6 9.3
2016-Nov-23 12:33N 40°47' E 014°09'1313.4
2016-Nov-23 11:33N 40°44' E 013°52'4 4.4
2016-Nov-23 10:34N 40°45' E 013°57'15 7.2
2016-Nov-23 08:28N 40°50' E 014°16'1617.4
2016-Nov-23 07:33N 40°45' E 013°56'1612.2
2016-Nov-23 06:16N 40°50' E 014°16'16 1.6
2016-Nov-22 20:13N 40°45' E 013°56'1319.5
2016-Nov-22 19:33N 40°48' E 014°13'16 8.2
2016-Nov-22 17:33N 40°45' E 013°52'1716.9
2016-Nov-22 16:33N 40°48' E 014°14'6 6.5
2016-Nov-22 15:33N 40°46' E 014°05'7 6.9
2016-Nov-22 14:33N 40°45' E 013°56'0 0.1
2016-Nov-22 10:34N 40°45' E 013°57'15 7.3
2016-Nov-22 08:30N 40°50' E 014°15'1516.3
2016-Nov-22 07:33N 40°45' E 013°56'4 0.3
2016-Nov-21 17:33N 40°44' E 013°52'3 1.1
2016-Nov-21 14:33N 40°45' E 013°56'  

Dump ship's entire track history